sensor_id;sensor_type;location;lat;lon;timestamp;temperature;humidity
22827;DHT22;11580;52.562;13.418;2023-05-10T00:00:51;15.20;20.60
22827;DHT22;11580;52.562;13.418;2023-05-10T00:03:18;15.20;21.20
22827;DHT22;11580;52.562;13.418;2023-05-10T00:05:45;15.20;20.70
22827;DHT22;11580;52.562;13.418;2023-05-10T00:08:13;15.10;20.70
22827;DHT22;11580;52.562;13.418;2023-05-10T00:10:40;15.10;20.70
22827;DHT22;11580;52.562;13.418;2023-05-10T00:13:07;15.00;20.70
22827;DHT22;11580;52.562;13.418;2023-05-10T00:15:36;15.00;21.40
22827;DHT22;11580;52.562;13.418;2023-05-10T00:18:03;15.00;21.00
22827;DHT22;11580;52.562;13.418;2023-05-10T00:20:30;14.90;20.90
22827;DHT22;11580;52.562;13.418;2023-05-10T00:22:57;14.90;21.60
22827;DHT22;11580;52.562;13.418;2023-05-10T00:25:24;14.90;21.10
22827;DHT22;11580;52.562;13.418;2023-05-10T00:27:52;14.80;21.10
22827;DHT22;11580;52.562;13.418;2023-05-10T00:30:20;14.80;21.20
22827;DHT22;11580;52.562;13.418;2023-05-10T00:32:49;14.70;21.20
22827;DHT22;11580;52.562;13.418;2023-05-10T00:35:17;14.70;21.40
22827;DHT22;11580;52.562;13.418;2023-05-10T00:37:44;14.70;21.30
22827;DHT22;11580;52.562;13.418;2023-05-10T00:40:12;14.70;21.50
22827;DHT22;11580;52.562;13.418;2023-05-10T00:42:42;14.60;21.50
22827;DHT22;11580;52.562;13.418;2023-05-10T00:45:09;14.60;21.70
22827;DHT22;11580;52.562;13.418;2023-05-10T00:47:37;14.60;21.80
22827;DHT22;11580;52.562;13.418;2023-05-10T00:50:07;14.50;21.70
22827;DHT22;11580;52.562;13.418;2023-05-10T00:52:35;14.50;21.70
22827;DHT22;11580;52.562;13.418;2023-05-10T00:55:03;14.50;21.70
22827;DHT22;11580;52.562;13.418;2023-05-10T00:57:31;14.40;21.70
22827;DHT22;11580;52.562;13.418;2023-05-10T00:59:59;14.40;21.70
22827;DHT22;11580;52.562;13.418;2023-05-10T01:02:26;14.40;21.70
22827;DHT22;11580;52.562;13.418;2023-05-10T01:04:54;14.40;21.70
22827;DHT22;11580;52.562;13.418;2023-05-10T01:07:23;14.40;22.20
22827;DHT22;11580;52.562;13.418;2023-05-10T01:09:51;14.30;21.60
22827;DHT22;11580;52.562;13.418;2023-05-10T01:12:18;14.30;21.60
22827;DHT22;11580;52.562;13.418;2023-05-10T01:14:45;14.30;22.20
22827;DHT22;11580;52.562;13.418;2023-05-10T01:17:13;14.30;21.70
22827;DHT22;11580;52.562;13.418;2023-05-10T01:19:41;14.30;21.90
22827;DHT22;11580;52.562;13.418;2023-05-10T01:22:30;14.20;21.80
22827;DHT22;11580;52.562;13.418;2023-05-10T01:25:23;14.20;22.60
22827;DHT22;11580;52.562;13.418;2023-05-10T01:28:20;14.20;22.60
22827;DHT22;11580;52.562;13.418;2023-05-10T01:31:28;14.10;22.60
22827;DHT22;11580;52.562;13.418;2023-05-10T01:34:09;14.10;22.60
22827;DHT22;11580;52.562;13.418;2023-05-10T01:36:47;14.10;22.30
22827;DHT22;11580;52.562;13.418;2023-05-10T01:39:36;14.10;22.50
22827;DHT22;11580;52.562;13.418;2023-05-10T01:42:14;14.00;22.50
22827;DHT22;11580;52.562;13.418;2023-05-10T01:45:00;14.00;22.30
22827;DHT22;11580;52.562;13.418;2023-05-10T01:47:37;14.00;22.70
22827;DHT22;11580;52.562;13.418;2023-05-10T01:50:14;13.90;22.50
22827;DHT22;11580;52.562;13.418;2023-05-10T01:52:46;13.90;22.60
22827;DHT22;11580;52.562;13.418;2023-05-10T01:55:20;13.80;22.50
22827;DHT22;11580;52.562;13.418;2023-05-10T01:57:58;13.90;22.60
22827;DHT22;11580;52.562;13.418;2023-05-10T02:00:29;13.80;22.80
22827;DHT22;11580;52.562;13.418;2023-05-10T02:03:00;13.80;22.60
22827;DHT22;11580;52.562;13.418;2023-05-10T02:05:32;13.90;22.80
22827;DHT22;11580;52.562;13.418;2023-05-10T02:08:01;13.80;22.80
22827;DHT22;11580;52.562;13.418;2023-05-10T02:10:32;13.80;22.70
22827;DHT22;11580;52.562;13.418;2023-05-10T02:13:02;13.70;23.30
22827;DHT22;11580;52.562;13.418;2023-05-10T02:15:30;13.70;22.80
22827;DHT22;11580;52.562;13.418;2023-05-10T02:17:59;13.70;22.70
22827;DHT22;11580;52.562;13.418;2023-05-10T02:20:27;13.70;22.80
22827;DHT22;11580;52.562;13.418;2023-05-10T02:22:57;13.70;22.80
22827;DHT22;11580;52.562;13.418;2023-05-10T02:25:27;13.70;23.10
22827;DHT22;11580;52.562;13.418;2023-05-10T02:27:56;13.70;23.00
22827;DHT22;11580;52.562;13.418;2023-05-10T02:30:26;13.70;23.00
22827;DHT22;11580;52.562;13.418;2023-05-10T02:32:54;13.70;22.90
22827;DHT22;11580;52.562;13.418;2023-05-10T02:35:26;13.60;22.90
22827;DHT22;11580;52.562;13.418;2023-05-10T02:37:54;13.60;23.00
22827;DHT22;11580;52.562;13.418;2023-05-10T02:40:26;13.60;23.00
22827;DHT22;11580;52.562;13.418;2023-05-10T02:42:56;13.60;23.30
22827;DHT22;11580;52.562;13.418;2023-05-10T02:45:28;13.60;23.10
22827;DHT22;11580;52.562;13.418;2023-05-10T02:47:58;13.60;23.20
22827;DHT22;11580;52.562;13.418;2023-05-10T02:50:27;13.60;23.10
22827;DHT22;11580;52.562;13.418;2023-05-10T02:53:01;13.60;23.30
22827;DHT22;11580;52.562;13.418;2023-05-10T02:55:37;13.80;23.60
22827;DHT22;11580;52.562;13.418;2023-05-10T02:58:07;13.50;23.30
22827;DHT22;11580;52.562;13.418;2023-05-10T03:00:34;13.50;23.10
22827;DHT22;11580;52.562;13.418;2023-05-10T03:03:02;13.50;23.10
22827;DHT22;11580;52.562;13.418;2023-05-10T03:05:29;13.50;23.20
22827;DHT22;11580;52.562;13.418;2023-05-10T03:08:00;13.50;23.20
22827;DHT22;11580;52.562;13.418;2023-05-10T03:10:30;13.40;23.20
22827;DHT22;11580;52.562;13.418;2023-05-10T03:13:16;13.40;23.30
22827;DHT22;11580;52.562;13.418;2023-05-10T03:15:58;13.40;23.80
22827;DHT22;11580;52.562;13.418;2023-05-10T03:18:37;13.40;23.50
22827;DHT22;11580;52.562;13.418;2023-05-10T03:21:10;13.40;23.60
22827;DHT22;11580;52.562;13.418;2023-05-10T03:23:44;13.40;23.50
22827;DHT22;11580;52.562;13.418;2023-05-10T03:26:18;13.20;23.40
22827;DHT22;11580;52.562;13.418;2023-05-10T03:28:55;13.40;23.80
22827;DHT22;11580;52.562;13.418;2023-05-10T03:31:24;13.40;24.30
22827;DHT22;11580;52.562;13.418;2023-05-10T03:33:52;13.50;23.80
22827;DHT22;11580;52.562;13.418;2023-05-10T03:36:24;13.50;23.80
22827;DHT22;11580;52.562;13.418;2023-05-10T03:38:51;13.70;24.00
22827;DHT22;11580;52.562;13.418;2023-05-10T03:41:18;13.80;24.10
22827;DHT22;11580;52.562;13.418;2023-05-10T03:43:47;14.10;24.20
22827;DHT22;11580;52.562;13.418;2023-05-10T03:46:15;14.30;24.90
22827;DHT22;11580;52.562;13.418;2023-05-10T03:48:43;14.50;24.30
22827;DHT22;11580;52.562;13.418;2023-05-10T03:51:10;14.80;24.40
22827;DHT22;11580;52.562;13.418;2023-05-10T03:53:39;15.20;24.50
22827;DHT22;11580;52.562;13.418;2023-05-10T03:56:06;15.60;25.00
22827;DHT22;11580;52.562;13.418;2023-05-10T03:58:34;16.00;24.40
22827;DHT22;11580;52.562;13.418;2023-05-10T04:01:01;16.40;24.70
22827;DHT22;11580;52.562;13.418;2023-05-10T04:03:30;16.80;24.00
22827;DHT22;11580;52.562;13.418;2023-05-10T04:06:00;17.30;23.60
22827;DHT22;11580;52.562;13.418;2023-05-10T04:08:28;17.70;23.30
22827;DHT22;11580;52.562;13.418;2023-05-10T04:11:04;18.20;23.70
22827;DHT22;11580;52.562;13.418;2023-05-10T04:13:33;18.60;22.30
22827;DHT22;11580;52.562;13.418;2023-05-10T04:16:00;19.10;23.10
22827;DHT22;11580;52.562;13.418;2023-05-10T04:18:28;19.50;22.80
22827;DHT22;11580;52.562;13.418;2023-05-10T04:20:57;19.90;23.10
22827;DHT22;11580;52.562;13.418;2023-05-10T04:23:24;20.30;22.20
22827;DHT22;11580;52.562;13.418;2023-05-10T04:25:51;20.70;21.80
22827;DHT22;11580;52.562;13.418;2023-05-10T04:28:18;21.10;21.60
22827;DHT22;11580;52.562;13.418;2023-05-10T04:30:46;21.50;21.90
22827;DHT22;11580;52.562;13.418;2023-05-10T04:33:13;21.80;20.90
22827;DHT22;11580;52.562;13.418;2023-05-10T04:35:42;22.20;20.50
22827;DHT22;11580;52.562;13.418;2023-05-10T04:38:10;22.50;20.40
22827;DHT22;11580;52.562;13.418;2023-05-10T04:40:37;22.70;20.30
22827;DHT22;11580;52.562;13.418;2023-05-10T04:43:04;23.00;19.50
22827;DHT22;11580;52.562;13.418;2023-05-10T04:45:31;23.20;18.90
22827;DHT22;11580;52.562;13.418;2023-05-10T04:47:58;23.20;18.40
22827;DHT22;11580;52.562;13.418;2023-05-10T04:50:25;23.20;18.00
22827;DHT22;11580;52.562;13.418;2023-05-10T04:52:54;23.00;17.60
22827;DHT22;11580;52.562;13.418;2023-05-10T04:55:21;22.80;17.00
22827;DHT22;11580;52.562;13.418;2023-05-10T04:57:48;22.50;17.80
22827;DHT22;11580;52.562;13.418;2023-05-10T05:00:16;22.20;17.30
22827;DHT22;11580;52.562;13.418;2023-05-10T05:02:44;21.80;17.40
22827;DHT22;11580;52.562;13.418;2023-05-10T05:05:11;21.50;17.50
22827;DHT22;11580;52.562;13.418;2023-05-10T05:07:39;21.20;17.50
22827;DHT22;11580;52.562;13.418;2023-05-10T05:10:08;20.90;17.60
22827;DHT22;11580;52.562;13.418;2023-05-10T05:12:36;20.70;17.60
22827;DHT22;11580;52.562;13.418;2023-05-10T05:15:03;20.40;17.80
22827;DHT22;11580;52.562;13.418;2023-05-10T05:17:31;20.10;17.90
22827;DHT22;11580;52.562;13.418;2023-05-10T05:19:58;19.90;18.00
22827;DHT22;11580;52.562;13.418;2023-05-10T05:22:25;19.70;18.10
22827;DHT22;11580;52.562;13.418;2023-05-10T05:24:53;19.40;18.20
22827;DHT22;11580;52.562;13.418;2023-05-10T05:27:22;19.20;18.30
22827;DHT22;11580;52.562;13.418;2023-05-10T05:29:52;19.00;18.40
22827;DHT22;11580;52.562;13.418;2023-05-10T05:32:20;18.90;18.60
22827;DHT22;11580;52.562;13.418;2023-05-10T05:34:47;18.70;18.70
22827;DHT22;11580;52.562;13.418;2023-05-10T05:37:15;18.60;18.80
22827;DHT22;11580;52.562;13.418;2023-05-10T05:39:43;18.50;18.90
22827;DHT22;11580;52.562;13.418;2023-05-10T05:42:11;18.40;19.00
22827;DHT22;11580;52.562;13.418;2023-05-10T05:44:40;18.20;19.10
22827;DHT22;11580;52.562;13.418;2023-05-10T05:47:07;18.10;19.80
22827;DHT22;11580;52.562;13.418;2023-05-10T05:49:34;18.00;19.30
22827;DHT22;11580;52.562;13.418;2023-05-10T05:52:02;18.00;19.40
22827;DHT22;11580;52.562;13.418;2023-05-10T05:54:31;17.90;19.50
22827;DHT22;11580;52.562;13.418;2023-05-10T05:56:59;17.80;19.60
22827;DHT22;11580;52.562;13.418;2023-05-10T05:59:26;17.80;19.80
22827;DHT22;11580;52.562;13.418;2023-05-10T06:01:55;17.70;19.80
22827;DHT22;11580;52.562;13.418;2023-05-10T06:04:23;17.70;19.90
22827;DHT22;11580;52.562;13.418;2023-05-10T06:06:50;17.60;20.60
22827;DHT22;11580;52.562;13.418;2023-05-10T06:09:17;17.60;20.10
22827;DHT22;11580;52.562;13.418;2023-05-10T06:11:44;17.60;20.70
22827;DHT22;11580;52.562;13.418;2023-05-10T06:14:11;17.60;20.20
22827;DHT22;11580;52.562;13.418;2023-05-10T06:16:39;17.60;20.30
22827;DHT22;11580;52.562;13.418;2023-05-10T06:19:07;17.60;20.40
22827;DHT22;11580;52.562;13.418;2023-05-10T06:21:34;17.60;20.40
22827;DHT22;11580;52.562;13.418;2023-05-10T06:24:02;17.70;20.50
22827;DHT22;11580;52.562;13.418;2023-05-10T06:26:29;17.70;20.60
22827;DHT22;11580;52.562;13.418;2023-05-10T06:28:56;17.70;20.50
22827;DHT22;11580;52.562;13.418;2023-05-10T06:31:23;17.80;20.70
22827;DHT22;11580;52.562;13.418;2023-05-10T06:33:50;17.80;20.70
22827;DHT22;11580;52.562;13.418;2023-05-10T06:36:19;17.90;20.70
22827;DHT22;11580;52.562;13.418;2023-05-10T06:38:47;17.90;20.70
22827;DHT22;11580;52.562;13.418;2023-05-10T06:41:14;18.00;20.80
22827;DHT22;11580;52.562;13.418;2023-05-10T06:43:41;18.10;20.80
22827;DHT22;11580;52.562;13.418;2023-05-10T06:46:09;18.10;20.70
22827;DHT22;11580;52.562;13.418;2023-05-10T06:48:36;18.20;20.70
22827;DHT22;11580;52.562;13.418;2023-05-10T06:51:03;18.20;21.20
22827;DHT22;11580;52.562;13.418;2023-05-10T06:53:32;18.30;20.70
22827;DHT22;11580;52.562;13.418;2023-05-10T06:55:59;18.40;21.30
22827;DHT22;11580;52.562;13.418;2023-05-10T06:58:26;18.50;21.30
22827;DHT22;11580;52.562;13.418;2023-05-10T07:00:53;18.70;21.40
22827;DHT22;11580;52.562;13.418;2023-05-10T07:03:20;18.60;20.70
22827;DHT22;11580;52.562;13.418;2023-05-10T07:05:48;18.70;20.80
22827;DHT22;11580;52.562;13.418;2023-05-10T07:08:15;18.70;20.70
22827;DHT22;11580;52.562;13.418;2023-05-10T07:10:43;18.80;21.20
22827;DHT22;11580;52.562;13.418;2023-05-10T07:13:10;18.90;20.60
22827;DHT22;11580;52.562;13.418;2023-05-10T07:15:38;18.90;21.10
22827;DHT22;11580;52.562;13.418;2023-05-10T07:18:05;19.00;20.60
22827;DHT22;11580;52.562;13.418;2023-05-10T07:20:32;19.00;20.50
22827;DHT22;11580;52.562;13.418;2023-05-10T07:22:59;19.10;21.20
22827;DHT22;11580;52.562;13.418;2023-05-10T07:25:26;19.10;20.60
22827;DHT22;11580;52.562;13.418;2023-05-10T07:27:55;19.20;20.60
22827;DHT22;11580;52.562;13.418;2023-05-10T07:30:23;19.20;20.60
22827;DHT22;11580;52.562;13.418;2023-05-10T07:32:50;19.30;20.60
22827;DHT22;11580;52.562;13.418;2023-05-10T07:35:17;19.40;20.60
22827;DHT22;11580;52.562;13.418;2023-05-10T07:37:44;19.40;20.50
22827;DHT22;11580;52.562;13.418;2023-05-10T07:40:12;19.40;20.50
22827;DHT22;11580;52.562;13.418;2023-05-10T07:42:39;19.50;20.50
22827;DHT22;11580;52.562;13.418;2023-05-10T07:45:08;19.50;20.50
22827;DHT22;11580;52.562;13.418;2023-05-10T07:47:36;19.60;20.50
22827;DHT22;11580;52.562;13.418;2023-05-10T07:50:04;19.60;21.10
22827;DHT22;11580;52.562;13.418;2023-05-10T07:52:32;19.70;20.50
22827;DHT22;11580;52.562;13.418;2023-05-10T07:54:59;19.70;20.50
22827;DHT22;11580;52.562;13.418;2023-05-10T07:57:26;19.80;21.10
22827;DHT22;11580;52.562;13.418;2023-05-10T07:59:53;19.80;20.40
22827;DHT22;11580;52.562;13.418;2023-05-10T08:02:22;19.90;20.50
22827;DHT22;11580;52.562;13.418;2023-05-10T08:04:49;19.90;20.50
22827;DHT22;11580;52.562;13.418;2023-05-10T08:07:17;20.00;20.60
22827;DHT22;11580;52.562;13.418;2023-05-10T08:09:44;20.00;20.60
22827;DHT22;11580;52.562;13.418;2023-05-10T08:12:11;20.10;20.60
22827;DHT22;11580;52.562;13.418;2023-05-10T08:14:38;20.10;20.70
22827;DHT22;11580;52.562;13.418;2023-05-10T08:17:06;20.20;20.80
22827;DHT22;11580;52.562;13.418;2023-05-10T08:19:34;20.20;20.70
22827;DHT22;11580;52.562;13.418;2023-05-10T08:22:01;20.30;20.60
22827;DHT22;11580;52.562;13.418;2023-05-10T08:24:28;20.40;21.10
22827;DHT22;11580;52.562;13.418;2023-05-10T08:26:56;20.40;21.10
22827;DHT22;11580;52.562;13.418;2023-05-10T08:29:23;20.60;20.60
22827;DHT22;11580;52.562;13.418;2023-05-10T08:31:50;20.60;21.00
22827;DHT22;11580;52.562;13.418;2023-05-10T08:34:17;20.60;20.40
22827;DHT22;11580;52.562;13.418;2023-05-10T08:36:45;20.70;20.30
22827;DHT22;11580;52.562;13.418;2023-05-10T08:39:13;20.80;20.80
22827;DHT22;11580;52.562;13.418;2023-05-10T08:41:40;20.80;20.20
22827;DHT22;11580;52.562;13.418;2023-05-10T08:44:11;20.90;20.80
22827;DHT22;11580;52.562;13.418;2023-05-10T08:46:40;20.90;20.20
22827;DHT22;11580;52.562;13.418;2023-05-10T08:49:11;21.00;20.10
22827;DHT22;11580;52.562;13.418;2023-05-10T08:51:49;21.10;20.10
22827;DHT22;11580;52.562;13.418;2023-05-10T08:54:18;21.10;19.80
22827;DHT22;11580;52.562;13.418;2023-05-10T08:56:46;21.10;19.90
22827;DHT22;11580;52.562;13.418;2023-05-10T08:59:13;21.20;19.90
22827;DHT22;11580;52.562;13.418;2023-05-10T09:01:42;21.20;19.90
22827;DHT22;11580;52.562;13.418;2023-05-10T09:04:12;21.30;20.40
22827;DHT22;11580;52.562;13.418;2023-05-10T09:06:39;21.30;19.90
22827;DHT22;11580;52.562;13.418;2023-05-10T09:09:08;21.40;19.90
22827;DHT22;11580;52.562;13.418;2023-05-10T09:11:36;21.40;20.40
22827;DHT22;11580;52.562;13.418;2023-05-10T09:14:03;21.40;19.90
22827;DHT22;11580;52.562;13.418;2023-05-10T09:16:31;21.50;19.90
22827;DHT22;11580;52.562;13.418;2023-05-10T09:18:58;21.60;20.50
22827;DHT22;11580;52.562;13.418;2023-05-10T09:21:25;21.60;19.90
22827;DHT22;11580;52.562;13.418;2023-05-10T09:23:52;21.70;20.40
22827;DHT22;11580;52.562;13.418;2023-05-10T09:26:23;21.80;20.50
22827;DHT22;11580;52.562;13.418;2023-05-10T09:28:52;21.80;20.30
22827;DHT22;11580;52.562;13.418;2023-05-10T09:31:20;21.90;20.40
22827;DHT22;11580;52.562;13.418;2023-05-10T09:33:48;22.00;20.00
22827;DHT22;11580;52.562;13.418;2023-05-10T09:36:16;22.00;19.90
22827;DHT22;11580;52.562;13.418;2023-05-10T09:38:47;22.10;19.70
22827;DHT22;11580;52.562;13.418;2023-05-10T09:41:17;22.20;19.90
22827;DHT22;11580;52.562;13.418;2023-05-10T09:43:47;22.30;19.50
22827;DHT22;11580;52.562;13.418;2023-05-10T09:46:15;22.30;20.00
22827;DHT22;11580;52.562;13.418;2023-05-10T09:48:44;22.40;19.60
22827;DHT22;11580;52.562;13.418;2023-05-10T09:51:19;22.50;19.50
22827;DHT22;11580;52.562;13.418;2023-05-10T09:53:47;22.50;19.10
22827;DHT22;11580;52.562;13.418;2023-05-10T09:56:33;22.60;19.30
22827;DHT22;11580;52.562;13.418;2023-05-10T09:59:06;22.60;18.90
22827;DHT22;11580;52.562;13.418;2023-05-10T10:01:34;22.70;19.60
22827;DHT22;11580;52.562;13.418;2023-05-10T10:04:04;22.70;19.30
22827;DHT22;11580;52.562;13.418;2023-05-10T10:06:35;22.80;19.20
22827;DHT22;11580;52.562;13.418;2023-05-10T10:09:04;22.90;18.90
22827;DHT22;11580;52.562;13.418;2023-05-10T10:11:34;22.90;19.20
22827;DHT22;11580;52.562;13.418;2023-05-10T10:14:02;22.90;18.80
22827;DHT22;11580;52.562;13.418;2023-05-10T10:16:31;23.00;18.90
22827;DHT22;11580;52.562;13.418;2023-05-10T10:18:59;23.00;18.70
22827;DHT22;11580;52.562;13.418;2023-05-10T10:21:27;23.10;18.90
22827;DHT22;11580;52.562;13.418;2023-05-10T10:23:55;23.10;18.90
22827;DHT22;11580;52.562;13.418;2023-05-10T10:26:22;23.20;18.80
22827;DHT22;11580;52.562;13.418;2023-05-10T10:28:56;23.20;19.00
22827;DHT22;11580;52.562;13.418;2023-05-10T10:31:37;23.20;18.70
22827;DHT22;11580;52.562;13.418;2023-05-10T10:34:10;23.30;18.50
22827;DHT22;11580;52.562;13.418;2023-05-10T10:36:46;23.30;18.70
22827;DHT22;11580;52.562;13.418;2023-05-10T10:39:14;23.40;18.70
22827;DHT22;11580;52.562;13.418;2023-05-10T10:41:49;23.40;19.30
22827;DHT22;11580;52.562;13.418;2023-05-10T10:44:35;23.50;18.40
22827;DHT22;11580;52.562;13.418;2023-05-10T10:47:21;23.50;18.10
22827;DHT22;11580;52.562;13.418;2023-05-10T10:50:06;23.60;17.80
22827;DHT22;11580;52.562;13.418;2023-05-10T10:52:35;23.60;18.00
22827;DHT22;11580;52.562;13.418;2023-05-10T10:55:05;23.60;18.40
22827;DHT22;11580;52.562;13.418;2023-05-10T10:57:43;23.70;18.20
22827;DHT22;11580;52.562;13.418;2023-05-10T11:00:20;23.70;17.60
22827;DHT22;11580;52.562;13.418;2023-05-10T11:02:52;23.80;17.70
22827;DHT22;11580;52.562;13.418;2023-05-10T11:05:45;23.80;17.70
22827;DHT22;11580;52.562;13.418;2023-05-10T11:08:18;23.80;17.70
22827;DHT22;11580;52.562;13.418;2023-05-10T11:11:01;23.90;17.70
22827;DHT22;11580;52.562;13.418;2023-05-10T11:13:33;23.90;17.90
22827;DHT22;11580;52.562;13.418;2023-05-10T11:16:25;23.90;18.20
22827;DHT22;11580;52.562;13.418;2023-05-10T11:18:59;24.00;17.80
22827;DHT22;11580;52.562;13.418;2023-05-10T11:21:28;24.00;18.40
22827;DHT22;11580;52.562;13.418;2023-05-10T11:23:57;24.00;17.80
22827;DHT22;11580;52.562;13.418;2023-05-10T11:26:30;24.10;17.90
22827;DHT22;11580;52.562;13.418;2023-05-10T11:28:59;24.10;18.50
22827;DHT22;11580;52.562;13.418;2023-05-10T11:31:28;24.10;17.90
22827;DHT22;11580;52.562;13.418;2023-05-10T11:33:59;24.20;17.90
22827;DHT22;11580;52.562;13.418;2023-05-10T11:36:28;24.20;17.90
22827;DHT22;11580;52.562;13.418;2023-05-10T11:38:59;24.30;18.00
22827;DHT22;11580;52.562;13.418;2023-05-10T11:41:28;24.30;18.00
22827;DHT22;11580;52.562;13.418;2023-05-10T11:43:57;24.30;18.00
22827;DHT22;11580;52.562;13.418;2023-05-10T11:46:27;24.40;18.10
22827;DHT22;11580;52.562;13.418;2023-05-10T11:48:59;24.40;18.10
22827;DHT22;11580;52.562;13.418;2023-05-10T11:51:29;24.40;18.10
22827;DHT22;11580;52.562;13.418;2023-05-10T11:54:01;24.50;18.00
22827;DHT22;11580;52.562;13.418;2023-05-10T11:56:33;24.50;18.10
22827;DHT22;11580;52.562;13.418;2023-05-10T11:59:00;24.60;18.20
22827;DHT22;11580;52.562;13.418;2023-05-10T12:01:28;24.60;18.20
22827;DHT22;11580;52.562;13.418;2023-05-10T12:03:57;24.60;18.80
22827;DHT22;11580;52.562;13.418;2023-05-10T12:06:28;24.70;18.00
22827;DHT22;11580;52.562;13.418;2023-05-10T12:08:58;24.70;18.00
22827;DHT22;11580;52.562;13.418;2023-05-10T12:11:25;24.80;18.10
22827;DHT22;11580;52.562;13.418;2023-05-10T12:13:54;24.80;18.10
22827;DHT22;11580;52.562;13.418;2023-05-10T12:16:23;24.80;17.80
22827;DHT22;11580;52.562;13.418;2023-05-10T12:18:52;24.90;17.70
22827;DHT22;11580;52.562;13.418;2023-05-10T12:21:24;24.90;17.70
22827;DHT22;11580;52.562;13.418;2023-05-10T12:23:53;25.00;17.50
22827;DHT22;11580;52.562;13.418;2023-05-10T12:26:22;25.10;17.60
22827;DHT22;11580;52.562;13.418;2023-05-10T12:28:50;25.10;17.40
22827;DHT22;11580;52.562;13.418;2023-05-10T12:31:17;25.10;17.30
22827;DHT22;11580;52.562;13.418;2023-05-10T12:33:45;25.20;17.10
22827;DHT22;11580;52.562;13.418;2023-05-10T12:36:15;25.30;18.00
22827;DHT22;11580;52.562;13.418;2023-05-10T12:38:45;25.30;17.10
22827;DHT22;11580;52.562;13.418;2023-05-10T12:41:15;25.40;16.60
22827;DHT22;11580;52.562;13.418;2023-05-10T12:43:43;25.40;16.60
22827;DHT22;11580;52.562;13.418;2023-05-10T12:46:13;25.50;16.70
22827;DHT22;11580;52.562;13.418;2023-05-10T12:48:42;25.50;16.40
22827;DHT22;11580;52.562;13.418;2023-05-10T12:51:11;25.50;16.40
22827;DHT22;11580;52.562;13.418;2023-05-10T12:53:41;25.50;16.30
22827;DHT22;11580;52.562;13.418;2023-05-10T12:56:09;25.60;16.40
22827;DHT22;11580;52.562;13.418;2023-05-10T12:58:38;25.60;16.20
22827;DHT22;11580;52.562;13.418;2023-05-10T13:01:05;25.60;16.40
22827;DHT22;11580;52.562;13.418;2023-05-10T13:03:32;25.60;16.40
22827;DHT22;11580;52.562;13.418;2023-05-10T13:06:00;25.70;16.20
22827;DHT22;11580;52.562;13.418;2023-05-10T13:08:27;25.70;16.60
22827;DHT22;11580;52.562;13.418;2023-05-10T13:10:58;25.80;16.10
22827;DHT22;11580;52.562;13.418;2023-05-10T13:13:27;25.80;15.80
22827;DHT22;11580;52.562;13.418;2023-05-10T13:15:54;25.80;15.50
22827;DHT22;11580;52.562;13.418;2023-05-10T13:18:21;25.80;15.80
22827;DHT22;11580;52.562;13.418;2023-05-10T13:20:49;25.90;15.80
22827;DHT22;11580;52.562;13.418;2023-05-10T13:23:17;25.90;15.70
22827;DHT22;11580;52.562;13.418;2023-05-10T13:25:44;25.90;15.70
22827;DHT22;11580;52.562;13.418;2023-05-10T13:28:11;25.90;16.10
22827;DHT22;11580;52.562;13.418;2023-05-10T13:30:39;25.90;15.90
22827;DHT22;11580;52.562;13.418;2023-05-10T13:33:07;26.00;15.20
22827;DHT22;11580;52.562;13.418;2023-05-10T13:35:34;26.00;15.40
22827;DHT22;11580;52.562;13.418;2023-05-10T13:38:01;26.00;15.20
22827;DHT22;11580;52.562;13.418;2023-05-10T13:40:28;26.00;15.20
22827;DHT22;11580;52.562;13.418;2023-05-10T13:42:55;26.00;15.90
22827;DHT22;11580;52.562;13.418;2023-05-10T13:45:22;26.00;15.80
22827;DHT22;11580;52.562;13.418;2023-05-10T13:47:51;26.00;15.20
22827;DHT22;11580;52.562;13.418;2023-05-10T13:50:18;26.00;15.50
22827;DHT22;11580;52.562;13.418;2023-05-10T13:52:45;26.00;15.10
22827;DHT22;11580;52.562;13.418;2023-05-10T13:55:13;26.10;15.20
22827;DHT22;11580;52.562;13.418;2023-05-10T13:57:40;26.10;15.10
22827;DHT22;11580;52.562;13.418;2023-05-10T14:00:09;26.10;15.00
22827;DHT22;11580;52.562;13.418;2023-05-10T14:02:37;26.00;14.70
22827;DHT22;11580;52.562;13.418;2023-05-10T14:05:06;26.00;15.30
22827;DHT22;11580;52.562;13.418;2023-05-10T14:07:34;26.00;14.80
22827;DHT22;11580;52.562;13.418;2023-05-10T14:10:01;26.00;14.90
22827;DHT22;11580;52.562;13.418;2023-05-10T14:12:28;25.90;15.50
22827;DHT22;11580;52.562;13.418;2023-05-10T14:14:56;25.90;14.90
22827;DHT22;11580;52.562;13.418;2023-05-10T14:17:23;26.00;14.90
22827;DHT22;11580;52.562;13.418;2023-05-10T14:19:52;26.00;14.90
22827;DHT22;11580;52.562;13.418;2023-05-10T14:22:21;26.10;14.90
22827;DHT22;11580;52.562;13.418;2023-05-10T14:24:48;26.10;14.60
22827;DHT22;11580;52.562;13.418;2023-05-10T14:27:15;26.20;14.80
22827;DHT22;11580;52.562;13.418;2023-05-10T14:29:43;26.30;14.80
22827;DHT22;11580;52.562;13.418;2023-05-10T14:32:10;26.30;14.50
22827;DHT22;11580;52.562;13.418;2023-05-10T14:34:38;26.40;14.50
22827;DHT22;11580;52.562;13.418;2023-05-10T14:37:05;26.40;14.30
22827;DHT22;11580;52.562;13.418;2023-05-10T14:39:33;26.50;15.00
22827;DHT22;11580;52.562;13.418;2023-05-10T14:42:01;26.50;14.30
22827;DHT22;11580;52.562;13.418;2023-05-10T14:44:28;26.60;14.40
22827;DHT22;11580;52.562;13.418;2023-05-10T14:46:56;26.70;14.30
22827;DHT22;11580;52.562;13.418;2023-05-10T14:49:23;26.70;14.30
22827;DHT22;11580;52.562;13.418;2023-05-10T14:51:51;26.80;14.10
22827;DHT22;11580;52.562;13.418;2023-05-10T14:54:18;26.80;13.90
22827;DHT22;11580;52.562;13.418;2023-05-10T14:56:47;26.90;13.80
22827;DHT22;11580;52.562;13.418;2023-05-10T14:59:15;27.00;13.50
22827;DHT22;11580;52.562;13.418;2023-05-10T15:01:42;27.00;13.50
22827;DHT22;11580;52.562;13.418;2023-05-10T15:04:09;27.00;13.40
22827;DHT22;11580;52.562;13.418;2023-05-10T15:06:38;27.00;13.70
22827;DHT22;11580;52.562;13.418;2023-05-10T15:09:06;27.00;13.70
22827;DHT22;11580;52.562;13.418;2023-05-10T15:11:34;27.00;13.60
22827;DHT22;11580;52.562;13.418;2023-05-10T15:14:03;27.00;13.50
22827;DHT22;11580;52.562;13.418;2023-05-10T15:16:30;27.00;13.70
22827;DHT22;11580;52.562;13.418;2023-05-10T15:18:57;27.00;13.50
22827;DHT22;11580;52.562;13.418;2023-05-10T15:21:24;27.00;13.50
22827;DHT22;11580;52.562;13.418;2023-05-10T15:23:53;27.00;13.50
22827;DHT22;11580;52.562;13.418;2023-05-10T15:26:20;27.10;13.50
22827;DHT22;11580;52.562;13.418;2023-05-10T15:28:47;27.10;14.10